createdAt,value
2022-11-10T00:01:05.959Z,12.50
2022-11-10T00:03:34.082Z,12.40
2022-11-10T00:06:04.674Z,12.40
2022-11-10T00:08:32.932Z,12.40
2022-11-10T00:11:06.280Z,12.30
2022-11-10T00:13:36.061Z,12.30
2022-11-10T00:16:23.961Z,12.40
2022-11-10T00:18:52.471Z,12.40
2022-11-10T00:21:21.627Z,12.40
2022-11-10T00:23:49.487Z,12.40
2022-11-10T00:26:19.161Z,12.40
2022-11-10T00:28:47.044Z,12.30
2022-11-10T00:31:14.959Z,12.30
2022-11-10T00:33:44.211Z,12.30
2022-11-10T00:36:12.303Z,12.30
2022-11-10T00:38:41.631Z,12.30
2022-11-10T00:41:09.514Z,12.30
2022-11-10T00:43:37.354Z,12.30
2022-11-10T00:46:05.208Z,12.30
2022-11-10T00:48:33.067Z,12.30
2022-11-10T00:51:01.330Z,12.30
2022-11-10T00:53:29.165Z,12.30
2022-11-10T00:55:58.323Z,12.30
2022-11-10T00:58:26.352Z,12.30
2022-11-10T01:01:02.074Z,12.30
2022-11-10T01:03:30.055Z,12.30
2022-11-10T01:05:57.997Z,12.30
2022-11-10T01:08:26.975Z,12.30
2022-11-10T01:11:04.258Z,12.20
2022-11-10T01:13:32.834Z,12.20
2022-11-10T01:16:05.447Z,12.20
2022-11-10T01:18:33.495Z,12.20
2022-11-10T01:21:01.591Z,12.30
2022-11-10T01:23:29.781Z,12.30
2022-11-10T01:25:58.418Z,12.30
2022-11-10T01:28:27.955Z,12.30
2022-11-10T01:30:58.514Z,12.30
2022-11-10T01:33:26.590Z,12.30
2022-11-10T01:35:54.613Z,12.30
2022-11-10T01:38:22.994Z,12.20
2022-11-10T01:40:50.807Z,12.30
2022-11-10T01:43:18.969Z,12.30
2022-11-10T01:45:51.817Z,12.30
2022-11-10T01:48:27.441Z,12.30
2022-11-10T01:50:56.650Z,12.20
2022-11-10T01:53:28.246Z,12.20
2022-11-10T01:55:57.158Z,12.20
2022-11-10T01:58:31.407Z,12.20
2022-11-10T02:01:00.836Z,12.10
2022-11-10T02:03:34.359Z,12.10
2022-11-10T02:06:03.085Z,12.10
2022-11-10T02:08:31.333Z,12.10
2022-11-10T02:10:59.233Z,12.10
2022-11-10T02:13:27.527Z,12.10
2022-11-10T02:15:55.364Z,12.10
2022-11-10T02:18:24.625Z,12.20
2022-11-10T02:20:53.963Z,12.20
2022-11-10T02:23:47.979Z,12.10
2022-11-10T02:26:18.661Z,12.10
2022-11-10T02:28:46.577Z,12.10
2022-11-10T02:31:14.391Z,12.10
2022-11-10T02:33:42.487Z,12.10
2022-11-10T02:36:12.207Z,12.20
2022-11-10T02:38:41.183Z,12.10
2022-11-10T02:41:09.916Z,12.10
2022-11-10T02:43:39.319Z,12.10
2022-11-10T02:46:07.601Z,12.00
2022-11-10T02:48:35.426Z,12.10
2022-11-10T02:51:03.317Z,12.10
2022-11-10T02:53:32.489Z,12.10
2022-11-10T02:56:00.323Z,12.10
2022-11-10T02:58:28.122Z,12.10
2022-11-10T03:00:56.005Z,12.20
2022-11-10T03:03:24.285Z,12.20
2022-11-10T03:05:52.355Z,12.30
2022-11-10T03:08:20.161Z,12.40
2022-11-10T03:10:49.356Z,12.40
2022-11-10T03:13:17.167Z,12.40
2022-11-10T03:15:45.048Z,12.40
2022-11-10T03:18:12.873Z,12.40
2022-11-10T03:20:41.441Z,12.50
2022-11-10T03:23:09.837Z,12.30
2022-11-10T03:25:38.462Z,12.20
2022-11-10T03:28:07.721Z,12.20
2022-11-10T03:30:35.916Z,12.20
2022-11-10T03:33:03.822Z,12.20
2022-11-10T03:35:31.970Z,12.20
2022-11-10T03:37:59.795Z,12.20
2022-11-10T03:40:27.730Z,12.30
2022-11-10T03:42:55.602Z,12.20
2022-11-10T03:45:24.888Z,12.10
2022-11-10T03:47:52.907Z,12.00
2022-11-10T03:50:20.746Z,12.10
2022-11-10T03:52:48.629Z,12.00
2022-11-10T03:55:19.707Z,12.00
2022-11-10T03:57:47.855Z,11.90
2022-11-10T04:00:16.657Z,11.90
2022-11-10T04:02:45.818Z,11.90
2022-11-10T04:05:30.861Z,11.80
2022-11-10T04:08:17.838Z,11.80
2022-11-10T04:10:46.036Z,11.80
2022-11-10T04:13:31.688Z,11.80
2022-11-10T04:15:59.537Z,11.70
2022-11-10T04:18:29.558Z,11.70
2022-11-10T04:20:58.982Z,11.80
2022-11-10T04:23:28.459Z,11.80
2022-11-10T04:26:16.264Z,11.80
2022-11-10T04:28:45.311Z,11.80
2022-11-10T04:31:13.730Z,11.80
2022-11-10T04:33:43.564Z,11.80
2022-11-10T04:36:13.963Z,11.80
2022-11-10T04:38:42.263Z,11.80
2022-11-10T04:41:10.575Z,11.80
2022-11-10T04:43:38.746Z,11.80
2022-11-10T04:46:07.897Z,11.80
2022-11-10T04:48:36.825Z,11.80
2022-11-10T04:51:06.985Z,11.80
2022-11-10T04:53:34.858Z,11.80
2022-11-10T04:56:02.718Z,11.90
2022-11-10T04:58:30.533Z,12.00
2022-11-10T05:00:58.427Z,12.00
2022-11-10T05:03:26.889Z,12.00
2022-11-10T05:05:54.701Z,12.10
2022-11-10T05:08:23.882Z,12.00
2022-11-10T05:10:51.706Z,12.10
2022-11-10T05:13:19.751Z,12.00
2022-11-10T05:15:47.830Z,11.90
2022-11-10T05:18:15.865Z,11.90
2022-11-10T05:20:43.672Z,11.90
2022-11-10T05:23:29.176Z,11.90
2022-11-10T05:25:58.320Z,12.00
2022-11-10T05:28:26.209Z,12.00
2022-11-10T05:30:54.020Z,12.00
2022-11-10T05:33:22.309Z,12.00
2022-11-10T05:35:50.786Z,12.00
2022-11-10T05:38:18.715Z,12.00
2022-11-10T05:40:46.623Z,12.00
2022-11-10T05:43:16.237Z,12.00
2022-11-10T05:45:44.539Z,11.90
2022-11-10T05:48:12.392Z,11.80
2022-11-10T05:50:40.530Z,11.80
2022-11-10T05:53:08.490Z,11.80
2022-11-10T05:55:36.285Z,11.80
2022-11-10T05:58:04.339Z,11.80
2022-11-10T06:00:34.145Z,11.90
2022-11-10T06:03:03.789Z,11.80
2022-11-10T06:05:34.181Z,11.80
2022-11-10T06:08:03.748Z,11.70
2022-11-10T06:10:32.115Z,11.80
2022-11-10T06:13:00.004Z,11.80
2022-11-10T06:15:28.415Z,11.80
2022-11-10T06:17:58.142Z,11.80
2022-11-10T06:20:26.865Z,11.70
2022-11-10T06:23:02.911Z,11.80
2022-11-10T06:25:31.864Z,11.80
2022-11-10T06:28:00.009Z,11.70
2022-11-10T06:30:28.419Z,11.80
2022-11-10T06:32:57.634Z,11.70
2022-11-10T06:35:26.796Z,11.70
2022-11-10T06:37:59.377Z,11.70
2022-11-10T06:40:27.545Z,11.70
2022-11-10T06:42:55.381Z,11.70
2022-11-10T06:45:23.803Z,11.70
2022-11-10T06:48:02.433Z,11.60
2022-11-10T06:50:30.860Z,11.50
2022-11-10T06:52:59.960Z,11.50
2022-11-10T06:55:28.477Z,11.50
2022-11-10T06:57:56.375Z,11.50
2022-11-10T07:00:25.028Z,11.50
2022-11-10T07:03:02.107Z,11.50
2022-11-10T07:05:30.428Z,11.40
2022-11-10T07:08:03.090Z,11.50
2022-11-10T07:10:30.959Z,11.50
2022-11-10T07:12:59.270Z,11.60
2022-11-10T07:15:27.375Z,11.50
2022-11-10T07:17:55.296Z,11.60
2022-11-10T07:20:26.008Z,11.60
2022-11-10T07:22:59.303Z,11.60
2022-11-10T07:25:27.410Z,11.60
2022-11-10T07:27:55.836Z,11.60
2022-11-10T07:30:24.033Z,11.50
2022-11-10T07:32:59.858Z,11.50
2022-11-10T07:35:29.900Z,11.60
2022-11-10T07:37:58.503Z,11.60
2022-11-10T07:40:26.367Z,11.70
2022-11-10T07:42:54.294Z,11.80
2022-11-10T07:45:22.111Z,11.90
2022-11-10T07:47:50.322Z,12.00
2022-11-10T07:50:18.874Z,12.00
2022-11-10T07:52:48.168Z,12.00
2022-11-10T07:55:16.110Z,12.00
2022-11-10T07:57:44.055Z,12.00
2022-11-10T08:00:13.515Z,12.00
2022-11-10T08:02:41.368Z,12.10
2022-11-10T08:05:10.047Z,12.10
2022-11-10T08:07:38.042Z,12.00
2022-11-10T08:10:09.334Z,12.00
2022-11-10T08:12:37.437Z,12.00
2022-11-10T08:15:06.099Z,12.10
2022-11-10T08:17:33.957Z,12.00
2022-11-10T08:20:01.786Z,12.00
2022-11-10T08:22:29.667Z,12.10
2022-11-10T08:24:57.508Z,12.10
2022-11-10T08:27:26.830Z,12.10
2022-11-10T08:29:54.670Z,12.20
2022-11-10T08:32:22.949Z,12.20
2022-11-10T08:34:50.796Z,12.10
2022-11-10T08:37:18.934Z,12.10
2022-11-10T08:39:46.784Z,12.10
2022-11-10T08:42:14.625Z,12.20
2022-11-10T08:44:43.865Z,12.30
2022-11-10T08:47:11.671Z,12.50
2022-11-10T08:49:39.477Z,12.60
2022-11-10T08:52:07.289Z,12.70
2022-11-10T08:54:37.039Z,12.70
2022-11-10T08:57:05.112Z,12.80
2022-11-10T08:59:32.945Z,12.80
2022-11-10T09:02:02.186Z,12.80
2022-11-10T09:04:30.412Z,12.80
2022-11-10T09:06:58.279Z,12.80
2022-11-10T09:09:27.027Z,13.00
2022-11-10T09:11:54.916Z,13.10
2022-11-10T09:14:22.806Z,13.30
2022-11-10T09:16:50.763Z,13.40
2022-11-10T09:19:20.408Z,13.60
2022-11-10T09:21:48.317Z,13.80
2022-11-10T09:24:16.253Z,13.80
2022-11-10T09:26:47.413Z,13.90
2022-11-10T09:29:15.413Z,13.90
2022-11-10T09:31:45.068Z,13.90
2022-11-10T09:34:13.021Z,14.00
2022-11-10T09:36:42.878Z,14.00
2022-11-10T09:39:10.685Z,14.10
2022-11-10T09:41:41.795Z,14.30
2022-11-10T09:44:17.361Z,14.40
2022-11-10T09:46:48.898Z,14.30
2022-11-10T09:49:31.557Z,14.40
2022-11-10T09:52:02.091Z,14.50
2022-11-10T09:54:40.854Z,14.60
2022-11-10T09:57:13.713Z,14.70
2022-11-10T09:59:42.712Z,14.80
2022-11-10T10:02:24.166Z,14.90
2022-11-10T10:05:08.201Z,15.10
2022-11-10T10:07:48.280Z,15.20
2022-11-10T10:10:22.883Z,15.30
2022-11-10T10:13:03.914Z,15.40
2022-11-10T10:15:40.350Z,15.40
2022-11-10T10:18:22.453Z,15.40
2022-11-10T10:21:06.975Z,15.40
2022-11-10T10:24:07.831Z,15.40
2022-11-10T10:26:31.014Z,15.50
2022-11-10T10:29:03.027Z,15.50
2022-11-10T10:31:43.183Z,15.60
2022-11-10T10:34:15.778Z,15.70
2022-11-10T10:36:45.290Z,15.70
2022-11-10T10:39:18.266Z,15.80
2022-11-10T10:41:47.267Z,15.90
2022-11-10T10:44:17.628Z,16.00
2022-11-10T10:46:50.859Z,16.10
2022-11-10T10:49:31.505Z,16.40
2022-11-10T10:52:07.626Z,16.40
2022-11-10T10:54:38.205Z,16.60
2022-11-10T10:57:16.625Z,16.80
2022-11-10T10:59:45.005Z,16.90
2022-11-10T11:02:26.743Z,17.10
2022-11-10T11:05:12.681Z,17.30
2022-11-10T11:07:40.604Z,17.40
2022-11-10T11:10:21.449Z,17.40
2022-11-10T11:12:49.458Z,17.60
2022-11-10T11:15:26.348Z,17.80
2022-11-10T11:17:59.335Z,18.50
2022-11-10T11:20:47.425Z,20.00
2022-11-10T11:23:39.226Z,20.90
2022-11-10T11:26:17.745Z,22.50
2022-11-10T11:28:54.924Z,22.60
2022-11-10T11:31:31.557Z,22.70
2022-11-10T11:34:05.013Z,23.00
2022-11-10T11:36:42.625Z,23.10
2022-11-10T11:39:22.835Z,23.00
2022-11-10T11:41:59.786Z,24.10
2022-11-10T11:44:45.385Z,24.60
2022-11-10T11:47:23.994Z,24.90
2022-11-10T11:50:09.344Z,25.60
2022-11-10T11:52:43.233Z,26.80
2022-11-10T11:55:22.360Z,26.50
2022-11-10T11:58:17.915Z,26.10
2022-11-10T12:00:53.082Z,25.90
2022-11-10T12:03:54.598Z,26.60
2022-11-10T12:06:35.576Z,27.20
2022-11-10T12:09:16.103Z,27.20
2022-11-10T12:11:59.474Z,26.60
2022-11-10T12:14:39.748Z,26.30
2022-11-10T12:17:13.847Z,26.20
2022-11-10T12:19:50.029Z,25.80
2022-11-10T12:22:32.953Z,25.80
2022-11-10T12:25:17.860Z,26.00
2022-11-10T12:27:50.846Z,26.40
2022-11-10T12:30:20.229Z,26.80
2022-11-10T12:32:53.681Z,27.00
2022-11-10T12:35:24.399Z,26.40
2022-11-10T12:37:56.821Z,26.40
2022-11-10T12:40:28.491Z,26.10
2022-11-10T12:43:01.327Z,26.50
2022-11-10T12:45:34.705Z,26.80
2022-11-10T12:48:04.898Z,27.20
2022-11-10T12:50:42.204Z,27.20
2022-11-10T12:53:17.065Z,26.70
2022-11-10T12:55:50.536Z,26.50
2022-11-10T12:58:20.047Z,26.50
2022-11-10T13:00:59.613Z,26.90
2022-11-10T13:03:30.676Z,27.10
2022-11-10T13:06:01.423Z,27.10
2022-11-10T13:08:35.632Z,27.50
2022-11-10T13:11:15.384Z,27.80
2022-11-10T13:14:12.693Z,27.80
2022-11-10T13:16:56.771Z,28.10
2022-11-10T13:19:53.441Z,28.10
2022-11-10T13:22:33.538Z,28.30
2022-11-10T13:25:38.776Z,29.20
2022-11-10T13:28:09.530Z,29.40
2022-11-10T13:30:40.176Z,28.60
2022-11-10T13:33:34.255Z,27.90
2022-11-10T13:36:02.395Z,27.70
2022-11-10T13:38:41.448Z,28.30
2022-11-10T13:41:26.532Z,28.60
2022-11-10T13:43:55.962Z,28.90
2022-11-10T13:46:35.942Z,28.90
2022-11-10T13:49:26.405Z,29.60
2022-11-10T13:52:06.271Z,30.20
2022-11-10T13:55:11.833Z,30.00
2022-11-10T13:57:59.320Z,30.20
2022-11-10T14:00:29.676Z,30.20
2022-11-10T14:03:00.780Z,30.50
2022-11-10T14:06:05.602Z,30.00
2022-11-10T14:08:41.013Z,29.30
2022-11-10T14:11:20.694Z,29.00
2022-11-10T14:13:53.542Z,28.60
2022-11-10T14:16:24.172Z,28.30
2022-11-10T14:18:58.811Z,28.00
2022-11-10T14:21:31.937Z,27.40
2022-11-10T14:24:10.686Z,26.80
2022-11-10T14:26:42.841Z,26.60
2022-11-10T14:29:33.093Z,26.10
2022-11-10T14:32:04.280Z,26.10
2022-11-10T14:34:36.220Z,25.40
2022-11-10T14:37:05.950Z,24.70
2022-11-10T14:39:35.563Z,24.30
2022-11-10T14:42:06.367Z,23.80
2022-11-10T14:44:35.433Z,23.50
2022-11-10T14:47:23.602Z,23.10
2022-11-10T14:50:05.471Z,22.70
2022-11-10T14:52:38.458Z,22.50
2022-11-10T14:55:11.434Z,22.10
2022-11-10T14:57:40.591Z,21.50
2022-11-10T15:00:14.421Z,20.90
2022-11-10T15:02:42.497Z,20.40
2022-11-10T15:05:15.462Z,20.10
2022-11-10T15:07:45.969Z,19.80
2022-11-10T15:10:19.073Z,19.40
2022-11-10T15:12:59.731Z,19.40
2022-11-10T15:15:27.786Z,19.30
2022-11-10T15:17:55.663Z,19.10
2022-11-10T15:20:38.761Z,19.00
2022-11-10T15:23:22.394Z,19.00
2022-11-10T15:25:53.276Z,18.80
2022-11-10T15:28:30.363Z,18.70
2022-11-10T15:31:00.889Z,18.70
2022-11-10T15:33:32.070Z,18.60
2022-11-10T15:36:16.542Z,18.40
2022-11-10T15:39:01.525Z,18.30
2022-11-10T15:41:33.439Z,18.30
2022-11-10T15:44:14.552Z,18.10
2022-11-10T15:46:42.735Z,18.00
2022-11-10T15:49:13.950Z,17.90
2022-11-10T15:51:42.079Z,17.80
2022-11-10T15:54:12.832Z,17.60
2022-11-10T15:56:40.668Z,17.50
2022-11-10T15:59:10.777Z,17.30
2022-11-10T16:01:38.993Z,17.30
2022-11-10T16:04:09.610Z,17.30
2022-11-10T16:06:38.087Z,17.20
2022-11-10T16:09:06.719Z,17.10
2022-11-10T16:11:36.895Z,16.90
2022-11-10T16:14:05.695Z,16.80
2022-11-10T16:16:34.183Z,16.80
2022-11-10T16:19:02.049Z,16.80
2022-11-10T16:21:30.371Z,16.70
2022-11-10T16:23:58.494Z,16.60
2022-11-10T16:26:27.485Z,16.50
2022-11-10T16:28:56.928Z,16.30
2022-11-10T16:31:27.118Z,16.30
2022-11-10T16:33:55.108Z,16.30
2022-11-10T16:36:25.931Z,16.20
2022-11-10T16:38:54.140Z,16.20
2022-11-10T16:41:22.417Z,16.20
2022-11-10T16:43:50.760Z,16.10
2022-11-10T16:46:22.061Z,16.20
2022-11-10T16:48:51.190Z,16.10
2022-11-10T16:51:19.037Z,16.00
2022-11-10T16:53:47.018Z,16.00
2022-11-10T16:56:16.071Z,16.00
2022-11-10T16:58:43.940Z,15.90
2022-11-10T17:01:18.211Z,15.70
2022-11-10T17:03:50.338Z,15.70
2022-11-10T17:06:19.326Z,15.70
2022-11-10T17:08:48.802Z,15.70
2022-11-10T17:11:17.314Z,15.70
2022-11-10T17:13:45.637Z,15.60
2022-11-10T17:16:21.799Z,15.60
2022-11-10T17:18:52.021Z,15.60
2022-11-10T17:21:20.478Z,15.50
2022-11-10T17:23:48.718Z,15.50
2022-11-10T17:26:18.342Z,15.40
2022-11-10T17:28:46.275Z,15.40
2022-11-10T17:31:15.669Z,15.40
2022-11-10T17:33:43.573Z,15.40
2022-11-10T17:36:18.365Z,15.30
2022-11-10T17:38:46.430Z,15.30
2022-11-10T17:41:16.765Z,15.10
2022-11-10T17:43:45.972Z,15.00
2022-11-10T17:46:13.973Z,15.10
2022-11-10T17:48:42.114Z,15.10
2022-11-10T17:51:13.512Z,15.10
2022-11-10T17:53:43.931Z,15.00
2022-11-10T17:56:11.755Z,15.00
2022-11-10T17:58:39.750Z,15.00
2022-11-10T18:01:13.747Z,14.90
2022-11-10T18:03:41.644Z,14.90
2022-11-10T18:06:13.309Z,14.90
2022-11-10T18:08:42.556Z,14.80
2022-11-10T18:11:11.147Z,14.80
2022-11-10T18:13:39.656Z,14.80
2022-11-10T18:16:08.911Z,14.80
2022-11-10T18:18:37.336Z,14.80
2022-11-10T18:21:06.118Z,14.70
2022-11-10T18:23:34.173Z,14.60
2022-11-10T18:26:06.896Z,14.60
2022-11-10T18:28:35.488Z,14.60
2022-11-10T18:31:07.219Z,14.50
2022-11-10T18:33:35.110Z,14.40
2022-11-10T18:36:03.390Z,14.40
2022-11-10T18:38:31.215Z,14.30
2022-11-10T18:41:23.472Z,14.30
2022-11-10T18:43:52.763Z,14.30
2022-11-10T18:46:20.737Z,14.20
2022-11-10T18:48:49.104Z,14.20
2022-11-10T18:51:17.031Z,14.20
2022-11-10T18:53:45.116Z,14.10
2022-11-10T18:56:14.276Z,14.10
2022-11-10T18:58:42.158Z,14.00
2022-11-10T19:01:12.205Z,13.90
2022-11-10T19:03:40.093Z,13.90
2022-11-10T19:06:08.159Z,13.90
2022-11-10T19:08:36.681Z,13.80
2022-11-10T19:11:07.038Z,13.70
2022-11-10T19:13:34.894Z,13.80
2022-11-10T19:16:05.507Z,13.70
2022-11-10T19:18:34.835Z,13.60
2022-11-10T19:21:05.809Z,13.40
2022-11-10T19:23:33.766Z,13.40
2022-11-10T19:26:02.186Z,13.40
2022-11-10T19:28:30.226Z,13.40
2022-11-10T19:31:01.457Z,13.40
2022-11-10T19:33:30.710Z,13.40
2022-11-10T19:36:04.441Z,13.30
2022-11-10T19:38:32.473Z,13.30
2022-11-10T19:41:03.429Z,13.20
2022-11-10T19:43:31.631Z,13.10
2022-11-10T19:46:02.684Z,13.00
2022-11-10T19:48:31.310Z,13.00
2022-11-10T19:51:00.349Z,13.00
2022-11-10T19:53:30.225Z,12.90
2022-11-10T19:56:01.844Z,12.90
2022-11-10T19:58:30.260Z,12.90
2022-11-10T20:01:00.050Z,12.90
2022-11-10T20:03:30.170Z,12.80
2022-11-10T20:06:02.699Z,12.80
2022-11-10T20:08:32.582Z,12.70
2022-11-10T20:11:02.652Z,12.70
2022-11-10T20:13:30.913Z,12.60
2022-11-10T20:15:58.840Z,12.60
2022-11-10T20:18:26.671Z,12.50
2022-11-10T20:20:54.525Z,12.40
2022-11-10T20:23:22.787Z,12.40
2022-11-10T20:26:02.418Z,12.40
2022-11-10T20:28:30.354Z,12.40
2022-11-10T20:31:09.368Z,12.40
2022-11-10T20:33:45.715Z,12.40
2022-11-10T20:36:22.900Z,12.40
2022-11-10T20:38:51.405Z,12.30
2022-11-10T20:41:25.751Z,12.30
2022-11-10T20:43:53.784Z,12.30
2022-11-10T20:46:48.237Z,12.30
2022-11-10T20:49:10.923Z,12.30
2022-11-10T20:51:38.781Z,12.30
2022-11-10T20:54:06.669Z,12.40
2022-11-10T20:56:35.949Z,12.30
2022-11-10T20:59:03.805Z,12.30
2022-11-10T21:01:32.454Z,12.30
2022-11-10T21:04:00.484Z,12.30
2022-11-10T21:06:28.346Z,12.30
2022-11-10T21:08:56.930Z,12.20
2022-11-10T21:11:38.827Z,12.20
2022-11-10T21:14:08.067Z,12.10
2022-11-10T21:16:45.790Z,12.10
2022-11-10T21:19:13.589Z,12.10
2022-11-10T21:21:41.712Z,12.00
2022-11-10T21:24:10.911Z,12.00
2022-11-10T21:26:41.075Z,12.00
2022-11-10T21:29:11.524Z,12.00
2022-11-10T21:31:39.318Z,11.90
2022-11-10T21:34:07.361Z,11.90
2022-11-10T21:36:35.192Z,11.90
2022-11-10T21:39:03.133Z,11.90
2022-11-10T21:41:30.957Z,11.90
2022-11-10T21:43:58.925Z,11.90
2022-11-10T21:46:28.266Z,11.90
2022-11-10T21:48:56.165Z,11.80
2022-11-10T21:51:23.949Z,11.80
2022-11-10T21:53:51.864Z,11.90
2022-11-10T21:56:19.714Z,11.80
2022-11-10T21:58:47.602Z,11.80
2022-11-10T22:01:19.378Z,11.80
2022-11-10T22:03:48.706Z,11.70
2022-11-10T22:06:18.517Z,11.80
2022-11-10T22:08:48.286Z,11.70
2022-11-10T22:11:35.716Z,11.70
2022-11-10T22:14:21.166Z,11.70
2022-11-10T22:17:08.026Z,11.60
2022-11-10T22:19:41.101Z,11.60
2022-11-10T22:22:09.002Z,11.50
2022-11-10T22:24:36.818Z,11.50
2022-11-10T22:27:07.629Z,11.60
2022-11-10T22:29:37.382Z,11.60
2022-11-10T22:32:05.660Z,11.60
2022-11-10T22:34:36.894Z,11.50
2022-11-10T22:37:04.874Z,11.50
2022-11-10T22:39:46.601Z,11.60
2022-11-10T22:42:46.341Z,11.50
2022-11-10T22:45:14.242Z,11.40
2022-11-10T22:47:59.685Z,11.40
2022-11-10T22:50:28.866Z,11.40
2022-11-10T22:52:57.861Z,11.40
2022-11-10T22:55:25.663Z,11.40
2022-11-10T22:57:53.574Z,11.40
2022-11-10T23:00:21.842Z,11.40
2022-11-10T23:02:53.001Z,11.40
2022-11-10T23:05:20.902Z,11.40
2022-11-10T23:07:50.130Z,11.40
2022-11-10T23:10:18.136Z,11.50
2022-11-10T23:12:45.945Z,11.40
2022-11-10T23:15:13.806Z,11.50
2022-11-10T23:17:41.636Z,11.50
2022-11-10T23:20:10.828Z,11.50
2022-11-10T23:22:38.666Z,11.50
2022-11-10T23:25:08.905Z,11.40
2022-11-10T23:27:36.868Z,11.40
2022-11-10T23:30:05.322Z,11.40
2022-11-10T23:32:33.128Z,11.40
2022-11-10T23:35:00.946Z,11.40
2022-11-10T23:37:28.952Z,11.40
2022-11-10T23:39:56.764Z,11.40
2022-11-10T23:42:27.768Z,11.30
2022-11-10T23:44:56.584Z,11.20
2022-11-10T23:47:24.380Z,11.30
2022-11-10T23:49:52.260Z,11.30
2022-11-10T23:52:20.081Z,11.30
2022-11-10T23:54:48.670Z,11.20
2022-11-10T23:57:16.477Z,11.20
2022-11-10T23:59:45.654Z,11.20
